Time;durP1;ratioP1;P1;durP2;ratioP2;P2;SDS_P1;SDS_P2;PMS_P1;PMS_P2;Temp;Humidity;BMP_temperature;BMP_pressure;BME280_temperature;BME280_humidity;BME280_pressure;Samples;Min_cycle;Max_cycle;Signal;HPM_P1;HPM_P2
2024/01/30 00:02:12;;;;;;;;;;;;;;;-1.79;92.45;100955.66;5072260;28;19924;-78
2024/01/30 00:04:37;;;;;;;;;;;;;;;-1.85;91.78;100954.16;5054265;28;20006;-77
2024/01/30 00:07:03;;;;;;;;;;;;;;;-1.89;92.29;100953.97;5054433;28;19948;-79
2024/01/30 00:09:28;;;;;;;;;;;;;;;-1.85;92.49;100954.16;5071202;28;20046;-79
2024/01/30 00:11:54;;;;;;;;;;;;;;;-1.88;92.47;100952.88;5054524;28;19917;-78
2024/01/30 00:14:19;;;;;;;;;;;;;;;-1.89;92.16;100953.97;5054050;28;19913;-77
2024/01/30 00:16:45;;;;;;;;;;;;;;;-1.87;93.85;100954.44;5054289;28;19969;-79
2024/01/30 00:19:10;;;;;;;;;;;;;;;-1.90;92.96;100960.47;5054232;28;20305;-78
2024/01/30 00:21:35;;;;;;;;;;;;;;;-1.94;93.46;100964.88;5053870;28;19923;-78
2024/01/30 00:24:01;;;;;;;;;;;;;;;-2.02;93.61;100964.75;5072164;28;19920;-77
2024/01/30 00:26:26;;;;;;;;;;;;;;;-2.00;94.44;100979.63;5054076;28;20014;-78
2024/01/30 00:28:51;;;;;;;;;;;;;;;-1.99;95.18;100964.97;5071932;28;19920;-77
2024/01/30 00:31:17;;;;;;;;;;;;;;;-1.99;95.69;100970.41;5054198;28;20377;-79
2024/01/30 00:33:42;;;;;;;;;;;;;;;-1.92;96.08;100968.09;5054075;28;19912;-78
2024/01/30 00:36:09;;;;;;;;;;;;;;;-1.96;96.34;100969.78;5071821;28;19909;-79
2024/01/30 00:38:34;;;;;;;;;;;;;;;-2.07;95.42;100976.47;5053734;28;19920;-78
2024/01/30 00:40:59;;;;;;;;;;;;;;;-2.11;96.70;100970.06;5053898;28;20042;-78
2024/01/30 00:43:25;;;;;;;;;;;;;;;-2.22;96.10;100964.00;5071772;28;19920;-76
2024/01/30 00:45:52;;;;;;;;;;;;;;;-2.24;97.07;100973.53;5071634;28;19919;-78
2024/01/30 00:48:17;;;;;;;;;;;;;;;-2.26;97.28;100957.56;5071670;28;19915;-79
2024/01/30 00:50:43;;;;;;;;;;;;;;;-2.30;97.52;100966.59;5071601;28;19908;-79
2024/01/30 00:53:08;;;;;;;;;;;;;;;-2.23;97.53;100969.72;5071583;28;19913;-78
2024/01/30 00:55:33;;;;;;;;;;;;;;;-2.19;97.92;100973.44;5071630;28;20270;-78
2024/01/30 00:57:59;;;;;;;;;;;;;;;-2.18;98.17;100975.06;5053613;28;19919;-76
2024/01/30 01:00:28;;;;;;;;;;;;;;;-2.21;97.76;100967.50;5053309;28;19912;-78
2024/01/30 01:02:54;;;;;;;;;;;;;;;-2.25;98.00;100970.00;5053550;28;19920;-78
2024/01/30 01:05:19;;;;;;;;;;;;;;;-2.23;98.24;100975.13;5071220;28;19909;-78
2024/01/30 01:07:47;;;;;;;;;;;;;;;-2.30;97.03;100972.81;5071394;28;19913;-77
2024/01/30 01:10:13;;;;;;;;;;;;;;;-2.55;94.43;100976.69;5053585;28;19976;-79
2024/01/30 01:12:38;;;;;;;;;;;;;;;-2.80;93.57;100981.66;5053440;28;19934;-79
2024/01/30 01:15:04;;;;;;;;;;;;;;;-2.94;94.89;100984.28;5053524;28;20007;-79
2024/01/30 01:17:30;;;;;;;;;;;;;;;-3.14;95.29;100969.16;5071424;28;20036;-78
2024/01/30 01:19:55;;;;;;;;;;;;;;;-3.14;95.82;100971.03;5053370;28;19919;-79
2024/01/30 01:22:20;;;;;;;;;;;;;;;-3.24;95.85;100968.44;5071408;28;19915;-77
2024/01/30 01:24:46;;;;;;;;;;;;;;;-3.30;94.99;100971.22;5071295;28;20069;-78
2024/01/30 01:27:11;;;;;;;;;;;;;;;-3.35;96.97;100975.88;5071493;28;19912;-78
2024/01/30 01:29:36;;;;;;;;;;;;;;;-3.33;99.03;100963.69;5053317;28;19919;-78
2024/01/30 01:32:02;;;;;;;;;;;;;;;-3.38;99.38;100961.06;5053379;28;19913;-78
2024/01/30 01:34:27;;;;;;;;;;;;;;;-3.36;100.00;100969.66;5052876;28;19920;-77
2024/01/30 01:36:55;;;;;;;;;;;;;;;-3.36;100.00;100964.25;5071311;28;20343;-79
2024/01/30 01:39:20;;;;;;;;;;;;;;;-3.36;100.00;100966.97;5053271;28;19909;-77
2024/01/30 01:41:46;;;;;;;;;;;;;;;-3.36;100.00;100963.44;5071318;28;19935;-78
2024/01/30 01:44:11;;;;;;;;;;;;;;;-3.36;100.00;100956.16;5053171;28;20294;-78
2024/01/30 01:46:37;;;;;;;;;;;;;;;-3.35;100.00;100960.47;5071176;28;20424;-79
2024/01/30 01:49:02;;;;;;;;;;;;;;;-3.28;100.00;100955.53;5053150;28;20377;-78
2024/01/30 01:51:29;;;;;;;;;;;;;;;-3.22;100.00;100958.97;5071294;28;19923;-78
2024/01/30 01:53:55;;;;;;;;;;;;;;;-3.19;100.00;100960.25;5053189;28;19916;-79
2024/01/30 01:56:22;;;;;;;;;;;;;;;-3.18;100.00;100959.97;5071075;28;19912;-78
2024/01/30 01:58:47;;;;;;;;;;;;;;;-3.24;100.00;100955.72;5053269;28;19919;-78
2024/01/30 02:01:13;;;;;;;;;;;;;;;-3.32;100.00;100959.91;5070694;28;19917;-79
2024/01/30 02:03:39;;;;;;;;;;;;;;;-3.37;100.00;100957.22;5071096;28;19919;-78
2024/01/30 02:06:05;;;;;;;;;;;;;;;-3.39;100.00;100954.03;5052866;28;19997;-78
2024/01/30 02:08:30;;;;;;;;;;;;;;;-3.40;100.00;100951.63;5053115;28;20003;-78
2024/01/30 02:10:56;;;;;;;;;;;;;;;-3.50;100.00;100960.66;5070702;28;19913;-77
2024/01/30 02:13:21;;;;;;;;;;;;;;;-3.53;100.00;100958.50;5070818;28;19920;-77
2024/01/30 02:15:51;;;;;;;;;;;;;;;-3.57;100.00;100962.88;5052904;28;20462;-79
2024/01/30 02:18:16;;;;;;;;;;;;;;;-3.59;100.00;100959.66;5070792;28;19959;-78
2024/01/30 02:20:41;;;;;;;;;;;;;;;-3.67;100.00;100957.56;5052858;28;20337;-77
2024/01/30 02:23:09;;;;;;;;;;;;;;;-3.79;99.16;100962.56;5053025;28;19919;-78
2024/01/30 02:25:37;;;;;;;;;;;;;;;-3.80;98.69;100967.16;5070778;28;19914;-77
2024/01/30 02:28:02;;;;;;;;;;;;;;;-3.82;98.32;100965.84;5053491;28;19930;-78
2024/01/30 02:30:27;;;;;;;;;;;;;;;-3.87;98.60;100965.91;5074364;28;20470;-79
2024/01/30 02:32:53;;;;;;;;;;;;;;;-3.91;98.59;100962.16;5074082;28;19919;-77
2024/01/30 02:35:18;;;;;;;;;;;;;;;-3.91;99.35;100971.06;5056331;28;19919;-78
2024/01/30 02:37:43;;;;;;;;;;;;;;;-3.87;100.00;100968.59;5074200;28;19931;-78
2024/01/30 02:40:08;;;;;;;;;;;;;;;-3.80;100.00;100963.69;5056144;28;19912;-78
2024/01/30 02:42:34;;;;;;;;;;;;;;;-3.76;100.00;100965.53;5074127;28;20374;-79
2024/01/30 02:44:59;;;;;;;;;;;;;;;-3.68;100.00;100955.19;5073685;28;19925;-77
2024/01/30 02:47:25;;;;;;;;;;;;;;;-3.73;100.00;100954.13;5056123;28;20029;-79
2024/01/30 02:49:50;;;;;;;;;;;;;;;-3.82;100.00;100950.47;5056021;28;19919;-78
2024/01/30 02:52:15;;;;;;;;;;;;;;;-3.86;100.00;100959.44;5073838;28;20065;-78
2024/01/30 02:54:41;;;;;;;;;;;;;;;-3.84;100.00;100962.63;5055965;28;19909;-78
2024/01/30 02:57:06;;;;;;;;;;;;;;;-3.85;100.00;100959.13;5073897;28;19912;-78
2024/01/30 02:59:33;;;;;;;;;;;;;;;-3.84;100.00;100952.63;5073840;28;19915;-78
2024/01/30 03:01:59;;;;;;;;;;;;;;;-3.65;100.00;100966.22;5043016;28;19923;-78
2024/01/30 03:04:24;;;;;;;;;;;;;;;-3.39;100.00;100956.75;5033567;28;19921;-78
2024/01/30 03:06:49;;;;;;;;;;;;;;;-3.16;100.00;100949.69;5032337;28;20007;-79
2024/01/30 03:09:18;;;;;;;;;;;;;;;-3.00;100.00;100947.59;5033703;28;19909;-78
2024/01/30 03:11:43;;;;;;;;;;;;;;;-2.80;100.00;100949.22;5033559;28;19908;-78
2024/01/30 03:14:10;;;;;;;;;;;;;;;-2.78;100.00;100947.84;5033559;28;19913;-78
2024/01/30 03:16:36;;;;;;;;;;;;;;;-2.81;100.00;100950.28;5032275;28;19917;-77
2024/01/30 03:19:03;;;;;;;;;;;;;;;-2.65;100.00;100957.91;5033488;28;20318;-78
2024/01/30 03:21:28;;;;;;;;;;;;;;;-2.41;100.00;100949.69;5033479;28;19963;-79
2024/01/30 03:23:54;;;;;;;;;;;;;;;-2.16;100.00;100953.88;5033169;28;19940;-77
2024/01/30 03:26:19;;;;;;;;;;;;;;;-2.00;99.34;100952.53;5032069;28;19971;-78
2024/01/30 03:28:44;;;;;;;;;;;;;;;-2.06;97.85;100959.16;5031894;28;19917;-79
2024/01/30 03:31:12;;;;;;;;;;;;;;;-2.11;97.78;100953.81;5033196;28;20355;-76
2024/01/30 03:33:37;;;;;;;;;;;;;;;-2.36;97.73;100956.94;5033119;28;19917;-79
2024/01/30 03:36:03;;;;;;;;;;;;;;;-2.46;96.92;100949.75;5031780;28;19962;-79
2024/01/30 03:38:29;;;;;;;;;;;;;;;-2.43;98.78;100953.78;5032830;28;19931;-78
2024/01/30 03:40:54;;;;;;;;;;;;;;;-2.33;99.03;100959.03;5032811;28;19909;-78
2024/01/30 03:43:19;;;;;;;;;;;;;;;-2.24;97.74;100946.44;5032883;28;19909;-78
2024/01/30 03:45:45;;;;;;;;;;;;;;;-2.13;97.44;100951.41;5031558;28;20302;-78
2024/01/30 03:48:10;;;;;;;;;;;;;;;-2.03;98.00;100944.19;5031498;28;19967;-77
2024/01/30 03:50:35;;;;;;;;;;;;;;;-1.96;97.39;100944.59;5031366;28;19912;-79
2024/01/30 03:53:00;;;;;;;;;;;;;;;-1.86;97.05;100945.22;5032703;28;19960;-78
2024/01/30 03:55:26;;;;;;;;;;;;;;;-1.81;96.66;100942.41;5031605;28;19935;-79
2024/01/30 03:57:51;;;;;;;;;;;;;;;-1.84;96.62;100943.03;5033178;28;19909;-77
2024/01/30 04:00:16;;;;;;;;;;;;;;;-1.87;96.05;100949.03;5031538;28;19912;-78
2024/01/30 04:02:42;;;;;;;;;;;;;;;-1.85;95.28;100944.13;5031239;28;19932;-78
2024/01/30 04:05:07;;;;;;;;;;;;;;;-1.87;95.48;100951.75;5031565;28;19913;-78
2024/01/30 04:07:33;;;;;;;;;;;;;;;-1.88;95.40;100949.34;5031472;28;19916;-78
2024/01/30 04:09:58;;;;;;;;;;;;;;;-1.89;94.88;100956.66;5031295;28;20034;-78
2024/01/30 04:12:24;;;;;;;;;;;;;;;-1.91;94.54;100950.72;5031275;28;19908;-79
2024/01/30 04:14:49;;;;;;;;;;;;;;;-1.85;95.03;100957.66;5031310;28;20371;-78
2024/01/30 04:17:14;;;;;;;;;;;;;;;-1.82;94.16;100959.78;5031221;28;20371;-79
2024/01/30 04:19:40;;;;;;;;;;;;;;;-1.78;94.09;100960.00;5031148;28;19909;-78
2024/01/30 04:22:05;;;;;;;;;;;;;;;-1.80;94.01;100954.88;5032125;28;19908;-79
2024/01/30 04:24:31;;;;;;;;;;;;;;;-1.73;94.12;100958.00;5031970;28;19909;-77
2024/01/30 04:26:56;;;;;;;;;;;;;;;-1.76;94.33;100955.91;5030819;28;20371;-77
2024/01/30 04:29:22;;;;;;;;;;;;;;;-1.77;93.70;100956.19;5031922;28;19919;-77
2024/01/30 04:31:47;;;;;;;;;;;;;;;-1.73;93.77;100958.00;5032017;28;20007;-78
2024/01/30 04:34:13;;;;;;;;;;;;;;;-1.69;93.17;100960.91;5032034;28;20004;-79
2024/01/30 04:36:38;;;;;;;;;;;;;;;-1.66;93.52;100973.84;5030565;28;19912;-78
2024/01/30 04:39:03;;;;;;;;;;;;;;;-1.60;92.90;100975.38;5030845;28;19915;-78
2024/01/30 04:41:31;;;;;;;;;;;;;;;-1.47;92.01;100977.28;5032131;28;19915;-80
2024/01/30 04:43:56;;;;;;;;;;;;;;;-1.40;91.85;100977.69;5031865;28;19928;-78
2024/01/30 04:46:22;;;;;;;;;;;;;;;-1.34;90.89;100976.50;5030699;28;19909;-79
2024/01/30 04:48:47;;;;;;;;;;;;;;;-1.27;91.10;100979.59;5031912;28;19933;-78
2024/01/30 04:51:12;;;;;;;;;;;;;;;-1.26;89.96;100981.19;5029720;28;20414;-78
2024/01/30 04:53:39;;;;;;;;;;;;;;;-1.19;89.50;100978.09;5031842;28;19913;-78
2024/01/30 04:56:05;;;;;;;;;;;;;;;-1.13;89.61;100986.91;5030506;28;20287;-78
2024/01/30 04:58:30;;;;;;;;;;;;;;;-1.16;88.97;100988.34;5031725;28;19920;-80
2024/01/30 05:00:55;;;;;;;;;;;;;;;-1.23;89.20;100988.75;5031494;28;19913;-78
2024/01/30 05:03:22;;;;;;;;;;;;;;;-1.20;89.83;100986.50;5071556;28;19912;-78
2024/01/30 05:05:48;;;;;;;;;;;;;;;-1.18;89.42;100984.31;5071633;28;19908;-79
2024/01/30 05:08:13;;;;;;;;;;;;;;;-1.20;89.86;100998.16;5071698;28;19923;-78
2024/01/30 05:10:38;;;;;;;;;;;;;;;-1.19;89.61;100991.66;5053442;28;19912;-79
2024/01/30 05:13:03;;;;;;;;;;;;;;;-1.18;89.07;100995.97;5053322;28;20018;-79
2024/01/30 05:15:29;;;;;;;;;;;;;;;-1.08;89.45;101001.19;5071508;28;20388;-80
2024/01/30 05:17:55;;;;;;;;;;;;;;;-1.06;89.58;100998.97;5071482;28;19913;-79
2024/01/30 05:20:20;;;;;;;;;;;;;;;-1.00;89.40;101003.19;5071374;28;19909;-78
2024/01/30 05:22:46;;;;;;;;;;;;;;;-1.00;89.78;100995.06;5053404;28;20007;-79
2024/01/30 05:25:12;;;;;;;;;;;;;;;-0.99;89.50;101004.81;5053385;28;20393;-78
2024/01/30 05:27:37;;;;;;;;;;;;;;;-1.00;89.10;101000.47;5053312;28;20007;-78
2024/01/30 05:30:03;;;;;;;;;;;;;;;-1.00;88.94;100991.53;5053682;28;19995;-80
2024/01/30 05:32:28;;;;;;;;;;;;;;;-0.94;88.88;100996.56;5071306;28;19969;-79
2024/01/30 05:34:54;;;;;;;;;;;;;;;-0.94;89.66;101001.97;5053076;28;19908;-78
2024/01/30 05:37:19;;;;;;;;;;;;;;;-0.88;88.15;100998.06;5053171;28;19908;-80
2024/01/30 05:39:44;;;;;;;;;;;;;;;-0.85;88.40;101004.81;5071234;28;19994;-79
2024/01/30 05:42:10;;;;;;;;;;;;;;;-0.82;88.77;100999.56;5053275;28;19962;-79
2024/01/30 05:44:35;;;;;;;;;;;;;;;-0.79;89.11;101003.59;5070916;28;20336;-80
2024/01/30 05:47:00;;;;;;;;;;;;;;;-0.73;88.25;101007.00;5053159;28;20386;-79
2024/01/30 05:49:26;;;;;;;;;;;;;;;-0.80;87.94;100998.44;5071041;28;19912;-80
2024/01/30 05:51:51;;;;;;;;;;;;;;;-0.78;87.72;100998.97;5071083;28;20366;-77
2024/01/30 05:54:16;;;;;;;;;;;;;;;-0.82;86.81;100999.56;5071040;28;19916;-78
2024/01/30 05:56:42;;;;;;;;;;;;;;;-0.79;85.83;100992.72;5053139;28;19909;-78
2024/01/30 05:59:07;;;;;;;;;;;;;;;-0.75;86.26;100993.72;5071065;28;19912;-78
2024/01/30 06:01:33;;;;;;;;;;;;;;;-0.76;86.03;100999.44;5053036;28;19927;-80
2024/01/30 06:03:58;;;;;;;;;;;;;;;-0.87;86.59;100996.94;5056724;28;20403;-78
2024/01/30 06:06:23;;;;;;;;;;;;;;;-0.86;86.77;101000.47;5056893;28;19919;-78
2024/01/30 06:08:49;;;;;;;;;;;;;;;-0.96;87.34;101009.63;5056957;28;20297;-79
2024/01/30 06:11:14;;;;;;;;;;;;;;;-1.06;88.02;101004.41;5074717;28;19915;-78
2024/01/30 06:13:39;;;;;;;;;;;;;;;-1.09;88.60;101013.16;5074509;28;19913;-78
2024/01/30 06:16:05;;;;;;;;;;;;;;;-1.17;87.87;101005.72;5056922;28;19908;-78
2024/01/30 06:18:31;;;;;;;;;;;;;;;-1.34;89.04;101006.31;5056502;28;19942;-78
2024/01/30 06:20:56;;;;;;;;;;;;;;;-1.30;90.13;101001.09;5056665;28;19916;-78
2024/01/30 06:23:21;;;;;;;;;;;;;;;-1.19;89.66;101004.41;5056639;28;20437;-77
2024/01/30 06:25:47;;;;;;;;;;;;;;;-1.06;88.80;101009.03;5074388;28;19950;-79
2024/01/30 06:28:12;;;;;;;;;;;;;;;-0.93;88.33;101009.03;5074320;28;19919;-79
2024/01/30 06:30:37;;;;;;;;;;;;;;;-0.86;86.97;101008.63;5056113;28;19919;-78
2024/01/30 06:33:03;;;;;;;;;;;;;;;-0.77;86.09;101012.22;5055979;28;19916;-78
2024/01/30 06:35:28;;;;;;;;;;;;;;;-0.87;87.22;101012.44;5074351;28;19916;-78
2024/01/30 06:37:54;;;;;;;;;;;;;;;-0.93;85.69;101019.88;5056257;28;19918;-78
2024/01/30 06:40:19;;;;;;;;;;;;;;;-0.90;86.17;101024.69;5056317;28;20392;-78
2024/01/30 06:42:44;;;;;;;;;;;;;;;-0.85;85.65;101024.59;5055991;28;19978;-78
2024/01/30 06:45:10;;;;;;;;;;;;;;;-1.00;85.76;101024.91;5056125;28;20362;-79
2024/01/30 06:47:35;;;;;;;;;;;;;;;-1.18;85.32;101028.50;5056248;28;19996;-79
2024/01/30 06:50:02;;;;;;;;;;;;;;;-1.24;86.06;101035.94;5055916;28;19908;-78
2024/01/30 06:52:27;;;;;;;;;;;;;;;-1.21;86.99;101045.41;5055759;28;19961;-77
2024/01/30 06:54:52;;;;;;;;;;;;;;;-1.17;87.68;101045.59;5073916;28;19962;-78
2024/01/30 06:57:18;;;;;;;;;;;;;;;-1.15;86.62;101038.78;5055971;28;19962;-77
2024/01/30 06:59:43;;;;;;;;;;;;;;;-1.24;86.20;101051.41;5056101;28;19915;-78
2024/01/30 07:02:12;;;;;;;;;;;;;;;-1.34;85.44;101047.00;5055467;28;20428;-79
2024/01/30 07:04:37;;;;;;;;;;;;;;;-1.24;86.49;101043.28;5051225;28;19908;-78
2024/01/30 07:07:04;;;;;;;;;;;;;;;-0.96;85.75;101047.59;5055738;28;19909;-79
2024/01/30 07:09:30;;;;;;;;;;;;;;;-0.65;85.38;101044.25;5073636;28;19912;-78
2024/01/30 07:11:58;;;;;;;;;;;;;;;-0.38;84.59;101030.63;5073391;28;19916;-78
2024/01/30 07:14:23;;;;;;;;;;;;;;;-0.14;84.75;101036.59;5054742;28;20404;-78
2024/01/30 07:16:48;;;;;;;;;;;;;;;0.16;83.07;101040.47;5073396;28;19909;-79
2024/01/30 07:19:14;;;;;;;;;;;;;;;0.43;81.49;101031.34;5073253;28;19908;-79
2024/01/30 07:21:40;;;;;;;;;;;;;;;0.71;79.84;101027.34;5055179;28;19908;-79
2024/01/30 07:24:05;;;;;;;;;;;;;;;0.90;78.45;101031.75;5073843;28;19917;-78
2024/01/30 07:26:31;;;;;;;;;;;;;;;1.07;77.33;101038.06;5072755;28;19916;-79
2024/01/30 07:28:56;;;;;;;;;;;;;;;1.34;76.68;101036.19;5055098;28;19916;-77
2024/01/30 07:31:23;;;;;;;;;;;;;;;1.55;74.50;101029.81;5055255;28;19912;-79
2024/01/30 07:33:48;;;;;;;;;;;;;;;1.87;72.27;101030.47;5055005;28;19970;-79
2024/01/30 07:36:13;;;;;;;;;;;;;;;2.05;68.82;101024.66;5073097;28;19909;-78
2024/01/30 07:38:39;;;;;;;;;;;;;;;2.24;66.09;101029.78;5055170;28;19912;-78
2024/01/30 07:41:04;;;;;;;;;;;;;;;2.34;64.81;101028.66;5072918;28;19966;-79
2024/01/30 07:43:29;;;;;;;;;;;;;;;2.39;65.05;101023.81;5073154;28;19908;-78
2024/01/30 07:45:55;;;;;;;;;;;;;;;2.54;63.01;101027.94;5072906;28;19974;-80
2024/01/30 07:48:21;;;;;;;;;;;;;;;2.61;62.64;101024.72;5072906;28;20374;-79
2024/01/30 07:50:46;;;;;;;;;;;;;;;2.75;60.07;101031.56;5054944;28;19916;-78
2024/01/30 07:53:11;;;;;;;;;;;;;;;2.61;60.76;101025.50;5054498;28;19919;-80
2024/01/30 07:55:37;;;;;;;;;;;;;;;2.60;61.13;101029.38;5072375;28;19916;-79
2024/01/30 07:58:03;;;;;;;;;;;;;;;2.61;60.75;101030.16;5054625;28;19908;-78
2024/01/30 08:00:29;;;;;;;;;;;;;;;2.74;59.32;101026.44;5054601;28;19916;-80
2024/01/30 08:02:55;;;;;;;;;;;;;;;2.76;59.52;101025.00;5072283;28;19931;-78
2024/01/30 08:05:22;;;;;;;;;;;;;;;2.91;58.95;101023.63;5072507;28;19966;-80
2024/01/30 08:07:47;;;;;;;;;;;;;;;3.09;59.71;101010.69;5072339;28;19919;-78
2024/01/30 08:10:15;;;;;;;;;;;;;;;3.23;57.37;101014.78;5072452;28;20309;-77
2024/01/30 08:12:41;;;;;;;;;;;;;;;3.35;57.46;101016.00;5072593;28;19913;-79
2024/01/30 08:15:07;;;;;;;;;;;;;;;3.35;56.33;101024.22;5072436;28;19927;-78
2024/01/30 08:17:32;;;;;;;;;;;;;;;3.27;55.28;101023.13;5054202;28;19916;-80
2024/01/30 08:19:58;;;;;;;;;;;;;;;3.35;53.74;101021.47;5072440;28;19916;-77
2024/01/30 08:22:23;;;;;;;;;;;;;;;3.57;54.73;101021.94;5072015;28;19915;-79
2024/01/30 08:24:48;;;;;;;;;;;;;;;3.75;55.17;101024.56;5071905;28;19909;-79
2024/01/30 08:27:14;;;;;;;;;;;;;;;3.84;52.56;101025.31;5054298;28;19908;-79
2024/01/30 08:29:39;;;;;;;;;;;;;;;3.96;52.59;101020.69;5054095;28;19944;-78
2024/01/30 08:32:06;;;;;;;;;;;;;;;4.08;52.07;101022.69;5053744;28;20352;-78
2024/01/30 08:34:31;;;;;;;;;;;;;;;4.02;51.55;101024.03;5053769;28;20370;-78
2024/01/30 08:36:57;;;;;;;;;;;;;;;4.14;51.13;101023.25;5071854;28;19919;-78
2024/01/30 08:39:22;;;;;;;;;;;;;;;4.10;51.60;101020.38;5053870;28;19908;-78
2024/01/30 08:41:47;;;;;;;;;;;;;;;4.12;50.22;101020.84;5071808;28;20403;-79
2024/01/30 08:44:13;;;;;;;;;;;;;;;4.32;51.04;101016.47;5071694;28;19908;-78
2024/01/30 08:46:38;;;;;;;;;;;;;;;4.42;51.29;101016.03;5053845;28;19918;-78
2024/01/30 08:49:04;;;;;;;;;;;;;;;4.38;49.24;101012.41;5071306;28;20003;-77
2024/01/30 08:51:30;;;;;;;;;;;;;;;4.35;49.12;101004.84;5053701;28;20270;-77
2024/01/30 08:53:55;;;;;;;;;;;;;;;4.34;48.83;101001.31;5053455;28;19916;-79
2024/01/30 08:56:21;;;;;;;;;;;;;;;4.30;50.72;101007.81;5053601;28;19912;-78
2024/01/30 08:58:46;;;;;;;;;;;;;;;4.39;50.15;101009.34;5071794;28;19912;-78
2024/01/30 09:01:11;;;;;;;;;;;;;;;4.48;49.02;101004.53;5053514;28;20389;-77
2024/01/30 09:03:39;;;;;;;;;;;;;;;4.63;50.33;101000.38;5071325;28;20015;-79
2024/01/30 09:06:10;;;;;;;;;;;;;;;4.54;46.63;100996.09;5052806;28;20448;-77
2024/01/30 09:08:35;;;;;;;;;;;;;;;4.55;46.03;100992.25;5071085;28;19916;-77
2024/01/30 09:11:01;;;;;;;;;;;;;;;4.55;46.46;100994.97;5053476;28;19920;-78
2024/01/30 09:13:26;;;;;;;;;;;;;;;4.48;45.11;100996.34;5053483;28;20018;-77
2024/01/30 09:15:52;;;;;;;;;;;;;;;4.50;45.06;100998.75;5071097;28;19913;-77
2024/01/30 09:18:18;;;;;;;;;;;;;;;4.52;44.83;100991.00;5053339;28;20385;-78
2024/01/30 09:20:45;;;;;;;;;;;;;;;4.48;45.33;100996.34;5071383;28;19917;-78
2024/01/30 09:23:10;;;;;;;;;;;;;;;4.48;46.39;100984.59;5053388;28;19912;-77
2024/01/30 09:25:35;;;;;;;;;;;;;;;4.53;44.77;100987.09;5071139;28;20007;-78
2024/01/30 09:28:01;;;;;;;;;;;;;;;4.49;44.58;100986.19;5070978;28;19934;-78
2024/01/30 09:30:26;;;;;;;;;;;;;;;4.55;44.22;100982.09;5053090;28;19916;-78
2024/01/30 09:32:51;;;;;;;;;;;;;;;4.64;47.28;100971.81;5053063;28;19920;-78
2024/01/30 09:35:17;;;;;;;;;;;;;;;4.74;44.77;100971.38;5053349;28;19912;-78
2024/01/30 09:37:42;;;;;;;;;;;;;;;4.82;44.85;100967.72;5072858;28;20387;-77
2024/01/30 09:40:08;;;;;;;;;;;;;;;4.95;46.46;100968.53;5074893;28;20402;-78
2024/01/30 09:42:37;;;;;;;;;;;;;;;4.91;44.29;100957.47;5056655;28;20003;-77
2024/01/30 09:45:03;;;;;;;;;;;;;;;4.93;44.94;100959.88;5075140;28;19924;-77
2024/01/30 09:47:31;;;;;;;;;;;;;;;4.98;44.90;100947.88;5075090;28;19912;-79
2024/01/30 09:49:56;;;;;;;;;;;;;;;4.99;44.49;100946.75;5056772;28;19913;-80
2024/01/30 09:52:22;;;;;;;;;;;;;;;5.08;42.97;100950.13;5074897;28;19920;-78
2024/01/30 09:54:49;;;;;;;;;;;;;;;4.97;43.98;100944.34;5075110;28;20416;-77
2024/01/30 09:57:14;;;;;;;;;;;;;;;5.05;44.13;100934.41;5056692;28;20297;-78
2024/01/30 09:59:41;;;;;;;;;;;;;;;5.01;44.25;100938.94;5074898;28;19913;-79
2024/01/30 10:02:07;;;;;;;;;;;;;;;4.97;42.78;100938.84;5074655;28;19992;-78
2024/01/30 10:04:32;;;;;;;;;;;;;;;4.93;44.32;100934.41;5074706;28;19923;-78
2024/01/30 10:06:59;;;;;;;;;;;;;;;4.88;43.48;100932.72;5074728;28;19919;-78
2024/01/30 10:09:25;;;;;;;;;;;;;;;4.77;42.35;100928.81;5074398;28;19912;-79
2024/01/30 10:11:51;;;;;;;;;;;;;;;4.71;43.08;100920.03;5056662;28;19917;-78
2024/01/30 10:14:16;;;;;;;;;;;;;;;4.72;42.58;100916.16;5074408;28;19921;-78
2024/01/30 10:16:41;;;;;;;;;;;;;;;4.59;42.95;100916.50;5074540;28;19912;-78
2024/01/30 10:19:07;;;;;;;;;;;;;;;4.71;43.71;100913.75;5056629;28;19916;-79
2024/01/30 10:21:32;;;;;;;;;;;;;;;4.80;43.66;100917.19;5056484;28;20385;-79
2024/01/30 10:23:57;;;;;;;;;;;;;;;4.87;43.03;100912.75;5074213;28;19912;-78
2024/01/30 10:26:23;;;;;;;;;;;;;;;5.04;45.16;100900.72;5056137;28;19912;-78
2024/01/30 10:28:49;;;;;;;;;;;;;;;5.06;43.56;100903.13;5056047;28;19919;-77
2024/01/30 10:31:18;;;;;;;;;;;;;;;5.08;44.25;100903.56;5056287;28;20386;-77
2024/01/30 10:33:44;;;;;;;;;;;;;;;5.19;44.96;100901.94;5074302;28;20017;-77
2024/01/30 10:36:12;;;;;;;;;;;;;;;5.20;42.44;100900.78;5073970;28;19916;-78
2024/01/30 10:38:40;;;;;;;;;;;;;;;5.19;42.78;100899.19;5074162;28;20301;-77
2024/01/30 10:41:07;;;;;;;;;;;;;;;5.14;42.38;100896.69;5056034;28;19919;-77
2024/01/30 10:43:35;;;;;;;;;;;;;;;5.24;41.85;100910.72;5055723;28;19916;-78
2024/01/30 10:46:10;;;;;;;;;;;;;;;5.26;43.02;100899.41;5073924;28;19991;-78
2024/01/30 10:48:36;;;;;;;;;;;;;;;5.31;41.84;100899.97;5054734;28;19916;-78
2024/01/30 10:51:02;;;;;;;;;;;;;;;5.40;41.40;100899.84;5055869;28;19970;-78
2024/01/30 10:53:28;;;;;;;;;;;;;;;5.46;42.67;100900.38;5073844;28;20385;-78
2024/01/30 10:55:54;;;;;;;;;;;;;;;5.32;41.62;100889.78;5055984;28;20344;-79
2024/01/30 10:58:20;;;;;;;;;;;;;;;5.40;41.62;100899.03;5055778;28;19970;-77
2024/01/30 11:00:46;;;;;;;;;;;;;;;5.34;40.98;100893.00;5055803;28;19912;-78
2024/01/30 11:03:11;;;;;;;;;;;;;;;5.42;42.45;100894.00;5073549;28;19931;-79
2024/01/30 11:05:40;;;;;;;;;;;;;;;5.58;40.39;100884.69;5055446;28;19925;-78
2024/01/30 11:08:12;;;;;;;;;;;;;;;5.60;41.33;100885.13;5055484;28;20405;-79
2024/01/30 11:10:47;;;;;;;;;;;;;;;5.62;41.47;100882.81;5073516;28;19917;-79
2024/01/30 11:13:15;;;;;;;;;;;;;;;5.83;41.58;100885.38;5073420;28;19916;-79
2024/01/30 11:15:40;;;;;;;;;;;;;;;5.99;41.98;100880.72;5055465;28;19919;-79
2024/01/30 11:18:06;;;;;;;;;;;;;;;6.27;39.73;100882.63;5073434;28;19912;-77
2024/01/30 11:20:31;;;;;;;;;;;;;;;6.34;39.88;100874.53;5073400;28;19935;-77
2024/01/30 11:22:57;;;;;;;;;;;;;;;6.44;40.07;100861.09;5055481;28;20401;-79
2024/01/30 11:25:23;;;;;;;;;;;;;;;6.61;38.68;100861.84;5055128;28;20325;-78
2024/01/30 11:27:54;;;;;;;;;;;;;;;6.68;39.09;100862.03;5055306;28;19912;-79
2024/01/30 11:30:23;;;;;;;;;;;;;;;6.79;38.64;100863.88;5055185;28;19975;-78
2024/01/30 11:33:08;;;;;;;;;;;;;;;6.67;37.83;100854.94;5054921;28;19919;-78
2024/01/30 11:35:43;;;;;;;;;;;;;;;7.09;38.18;100855.88;5054987;28;19916;-78
2024/01/30 11:38:10;;;;;;;;;;;;;;;7.19;37.43;100846.25;5055023;28;20445;-78
2024/01/30 11:40:36;;;;;;;;;;;;;;;7.38;39.19;100850.97;5054803;28;20013;-79
2024/01/30 11:43:02;;;;;;;;;;;;;;;7.73;39.77;100843.41;5054783;28;20385;-78
2024/01/30 11:45:28;;;;;;;;;;;;;;;7.90;38.96;100840.16;5072752;28;19963;-78
2024/01/30 11:47:53;;;;;;;;;;;;;;;8.12;38.84;100827.59;5054621;28;20438;-78
2024/01/30 11:50:18;;;;;;;;;;;;;;;8.12;37.08;100835.84;5072485;28;20385;-79
2024/01/30 11:52:44;;;;;;;;;;;;;;;7.96;38.12;100826.88;5054208;28;20383;-79
2024/01/30 11:55:10;;;;;;;;;;;;;;;8.16;37.63;100823.72;5054598;28;19920;-78
2024/01/30 11:57:36;;;;;;;;;;;;;;;8.41;39.15;100823.34;5054674;28;20344;-79
2024/01/30 12:00:04;;;;;;;;;;;;;;;8.39;39.00;100811.91;5054126;28;19916;-78
2024/01/30 12:02:29;;;;;;;;;;;;;;;8.27;38.77;100812.88;5054365;28;19921;-78
2024/01/30 12:04:54;;;;;;;;;;;;;;;8.17;38.14;100806.03;5072170;28;19916;-79
2024/01/30 12:07:20;;;;;;;;;;;;;;;7.93;36.22;100811.13;5072405;28;20436;-79
2024/01/30 12:09:52;;;;;;;;;;;;;;;7.78;36.81;100805.38;5072313;28;19962;-79
2024/01/30 12:12:17;;;;;;;;;;;;;;;7.81;38.62;100805.81;5072344;28;19955;-78
2024/01/30 12:14:42;;;;;;;;;;;;;;;7.76;37.34;100796.69;5072215;28;19952;-78
2024/01/30 12:17:09;;;;;;;;;;;;;;;7.86;37.81;100792.53;5072198;28;19921;-78
2024/01/30 12:19:34;;;;;;;;;;;;;;;7.46;38.56;100784.75;5072344;28;19912;-78
2024/01/30 12:22:00;;;;;;;;;;;;;;;7.39;38.39;100786.56;5054115;28;19920;-77
2024/01/30 12:24:25;;;;;;;;;;;;;;;7.26;37.12;100778.47;5054017;28;20294;-78
2024/01/30 12:26:51;;;;;;;;;;;;;;;7.23;38.82;100779.19;5072007;28;19999;-78
2024/01/30 12:29:17;;;;;;;;;;;;;;;7.17;38.62;100775.13;5054225;28;20388;-79
2024/01/30 12:31:43;;;;;;;;;;;;;;;7.14;38.34;100770.38;5072039;28;19916;-79
2024/01/30 12:34:09;;;;;;;;;;;;;;;7.20;38.96;100763.44;5071719;28;19912;-79